Time;durP1;ratioP1;P1;durP2;ratioP2;P2;SDS_P1;SDS_P2;PMS_P1;PMS_P2;Temp;Humidity;BMP_temperature;BMP_pressure;BME280_temperature;BME280_humidity;BME280_pressure;Samples;Min_cycle;Max_cycle;Signal;HPM_P1;HPM_P2
2020/12/17 00:02:11;;;;;;;9.20;7.17;;;6.50;99.90;;;;;;5035758;28;20493;-70
2020/12/17 00:04:37;;;;;;;7.20;6.50;;;6.50;99.90;;;;;;5035831;28;20446;-70
2020/12/17 00:07:03;;;;;;;7.37;6.60;;;6.50;99.90;;;;;;5035829;28;20442;-70
2020/12/17 00:09:30;;;;;;;7.77;6.20;;;6.50;99.90;;;;;;5035769;28;20450;-70
2020/12/17 00:11:57;;;;;;;8.03;5.77;;;6.60;99.90;;;;;;5035397;28;20978;-72
2020/12/17 00:14:23;;;;;;;8.23;6.43;;;6.50;99.90;;;;;;5036009;28;20618;-70
2020/12/17 00:16:50;;;;;;;9.50;6.40;;;6.60;99.90;;;;;;5035381;28;20443;-70
2020/12/17 00:19:16;;;;;;;6.07;5.47;;;6.60;99.90;;;;;;5035645;28;20549;-70
2020/12/17 00:21:42;;;;;;;6.43;5.43;;;6.50;99.90;;;;;;5035496;28;20462;-70
2020/12/17 00:24:08;;;;;;;8.20;6.07;;;6.50;99.90;;;;;;5035531;28;20492;-70
2020/12/17 00:26:35;;;;;;;7.60;5.90;;;6.50;99.90;;;;;;5035035;28;20906;-70
2020/12/17 00:29:02;;;;;;;5.50;4.87;;;6.50;99.90;;;;;;5035423;28;20446;-70
2020/12/17 00:31:28;;;;;;;8.00;6.60;;;6.50;99.90;;;;;;5035317;28;20478;-70
2020/12/17 00:33:54;;;;;;;5.90;5.30;;;6.40;99.90;;;;;;5035325;28;20840;-70
2020/12/17 00:36:23;;;;;;;7.13;5.50;;;6.40;99.90;;;;;;5035283;28;20449;-70
2020/12/17 00:38:49;;;;;;;7.97;6.13;;;6.30;99.90;;;;;;5035294;28;20446;-70
2020/12/17 00:41:17;;;;;;;10.93;5.87;;;6.40;99.90;;;;;;5035103;28;20463;-71
2020/12/17 00:43:45;;;;;;;7.10;5.77;;;6.30;99.90;;;;;;5035164;28;20800;-70
2020/12/17 00:46:13;;;;;;;5.30;4.80;;;6.20;99.90;;;;;;5035016;28;20485;-70
2020/12/17 00:48:40;;;;;;;6.10;5.50;;;6.20;99.90;;;;;;5035096;28;20450;-71
2020/12/17 00:51:06;;;;;;;7.90;5.80;;;6.20;99.90;;;;;;5034934;28;20463;-71
2020/12/17 00:53:33;;;;;;;5.67;4.70;;;6.10;99.90;;;;;;5034959;28;20446;-70
2020/12/17 00:55:59;;;;;;;7.30;5.70;;;6.00;99.90;;;;;;5034895;28;20439;-70
2020/12/17 00:58:25;;;;;;;5.97;5.20;;;5.90;99.90;;;;;;5034835;28;20452;-70
2020/12/17 01:00:53;;;;;;;6.33;4.80;;;5.90;99.90;;;;;;5034780;28;20813;-70
2020/12/17 01:03:19;;;;;;;8.30;5.90;;;5.90;99.90;;;;;;5034583;28;21029;-70
2020/12/17 01:05:45;;;;;;;9.40;6.33;;;5.90;99.90;;;;;;5034737;28;20486;-70
2020/12/17 01:08:12;;;;;;;6.53;5.60;;;5.90;99.90;;;;;;5034953;28;20458;-70
2020/12/17 01:10:38;;;;;;;6.73;5.97;;;6.00;99.90;;;;;;5034580;28;20470;-70
2020/12/17 01:13:04;;;;;;;6.53;5.70;;;5.90;99.90;;;;;;5034549;28;20481;-70
2020/12/17 01:15:30;;;;;;;6.67;4.77;;;6.00;99.90;;;;;;5034541;28;20443;-70
2020/12/17 01:17:58;;;;;;;6.70;5.60;;;6.00;99.90;;;;;;5034208;28;20946;-70
2020/12/17 01:20:24;;;;;;;6.20;5.30;;;6.00;99.90;;;;;;5034392;28;20512;-70
2020/12/17 01:22:53;;;;;;;10.40;5.40;;;6.00;99.90;;;;;;5034396;28;20454;-70
2020/12/17 01:25:20;;;;;;;10.33;5.67;;;6.00;99.90;;;;;;5034316;28;20506;-70
2020/12/17 01:27:46;;;;;;;7.20;5.50;;;6.00;99.90;;;;;;5034044;28;20498;-70
2020/12/17 01:30:12;;;;;;;6.30;5.00;;;6.00;99.90;;;;;;5034127;28;20809;-70
2020/12/17 01:32:38;;;;;;;7.00;5.83;;;6.00;99.90;;;;;;5034246;28;20445;-70
2020/12/17 01:35:05;;;;;;;7.13;5.63;;;5.90;99.90;;;;;;5034198;28;20438;-70
2020/12/17 01:37:32;;;;;;;7.87;6.40;;;5.90;99.90;;;;;;5034153;28;20446;-70
2020/12/17 01:39:59;;;;;;;10.23;5.93;;;5.90;99.90;;;;;;5034360;28;20446;-70
2020/12/17 01:42:25;;;;;;;6.47;5.33;;;5.90;99.90;;;;;;5033689;28;20467;-70
2020/12/17 01:44:52;;;;;;;6.73;6.10;;;5.80;99.90;;;;;;5033935;28;20443;-70
2020/12/17 01:47:18;;;;;;;8.30;6.53;;;5.90;99.90;;;;;;5033990;28;20565;-70
2020/12/17 01:49:47;;;;;;;9.10;6.77;;;5.80;99.90;;;;;;5033905;28;20450;-70
2020/12/17 01:52:14;;;;;;;6.53;5.50;;;5.80;99.90;;;;;;5033806;28;20465;-70
2020/12/17 01:54:52;;;;;;;7.03;5.40;;;5.80;99.90;;;;;;5033705;28;20815;-70
2020/12/17 01:57:20;;;;;;;6.50;5.43;;;5.80;99.90;;;;;;5034369;28;20433;-70
2020/12/17 01:59:47;;;;;;;7.20;6.17;;;5.80;99.90;;;;;;5033706;28;20447;-70
2020/12/17 02:02:15;;;;;;;9.37;6.47;;;5.80;99.90;;;;;;5033557;28;20473;-70
2020/12/17 02:04:42;;;;;;;7.43;5.73;;;5.80;99.90;;;;;;5033584;28;20451;-70
2020/12/17 02:07:09;;;;;;;7.03;6.30;;;5.80;99.90;;;;;;5033592;28;20451;-70
2020/12/17 02:09:36;;;;;;;9.37;6.40;;;5.70;99.90;;;;;;5033581;28;20446;-71
2020/12/17 02:12:03;;;;;;;7.10;6.27;;;5.60;99.90;;;;;;5033456;28;20470;-70
2020/12/17 02:14:29;;;;;;;10.73;7.33;;;5.60;99.90;;;;;;5033484;28;20446;-70
2020/12/17 02:16:56;;;;;;;7.90;6.13;;;5.50;99.90;;;;;;5033440;28;20805;-70
2020/12/17 02:19:22;;;;;;;7.93;6.70;;;5.50;99.90;;;;;;5033451;28;20442;-70
2020/12/17 02:21:49;;;;;;;7.87;5.60;;;5.50;99.90;;;;;;5033279;28;20471;-70
2020/12/17 02:24:19;;;;;;;7.80;5.57;;;5.40;99.90;;;;;;5032926;28;20607;-70
2020/12/17 02:26:45;;;;;;;9.40;6.03;;;5.40;99.90;;;;;;5033240;28;20490;-70
2020/12/17 02:29:11;;;;;;;9.00;7.07;;;5.40;99.90;;;;;;5033002;28;20443;-70
2020/12/17 02:31:38;;;;;;;9.40;6.70;;;5.30;99.90;;;;;;5033420;28;20475;-70
2020/12/17 02:34:04;;;;;;;9.23;7.07;;;5.20;99.90;;;;;;5033202;28;20455;-70
2020/12/17 02:36:31;;;;;;;8.97;6.50;;;5.20;99.90;;;;;;5033217;28;20497;-70
2020/12/17 02:38:57;;;;;;;7.43;6.30;;;5.10;99.90;;;;;;5033248;28;20470;-70
2020/12/17 02:41:24;;;;;;;10.20;7.33;;;5.10;99.90;;;;;;5033127;28;20469;-70
2020/12/17 02:43:52;;;;;;;9.60;6.70;;;5.00;99.90;;;;;;5033167;28;20451;-70
2020/12/17 02:46:18;;;;;;;10.20;6.57;;;5.00;99.90;;;;;;5032812;28;20485;-70
2020/12/17 02:48:49;;;;;;;11.77;7.30;;;5.10;99.90;;;;;;5033163;28;20446;-70
2020/12/17 02:51:15;;;;;;;11.60;7.97;;;5.10;99.90;;;;;;5032794;28;20470;-70
2020/12/17 02:53:41;;;;;;;9.17;8.10;;;5.20;99.90;;;;;;5033130;28;20446;-70
2020/12/17 02:56:08;;;;;;;9.90;7.20;;;5.20;99.90;;;;;;5032795;28;20434;-70
2020/12/17 02:58:35;;;;;;;10.27;7.00;;;5.20;99.90;;;;;;5033085;28;20561;-70
2020/12/17 03:01:01;;;;;;;10.10;7.90;;;5.10;99.90;;;;;;5033386;28;20542;-70
2020/12/17 03:03:27;;;;;;;10.17;7.83;;;5.10;99.90;;;;;;5033002;28;20454;-70
2020/12/17 03:05:54;;;;;;;10.13;7.10;;;5.10;99.90;;;;;;5032620;28;20868;-70
2020/12/17 03:08:20;;;;;;;10.57;7.43;;;5.10;99.90;;;;;;5032980;28;20451;-70
2020/12/17 03:10:47;;;;;;;9.10;7.43;;;5.00;99.90;;;;;;5032576;28;20466;-70
2020/12/17 03:13:13;;;;;;;8.67;7.30;;;5.10;99.90;;;;;;5032965;28;20492;-70
2020/12/17 03:15:40;;;;;;;13.27;8.20;;;5.10;99.90;;;;;;5032965;28;20453;-70
2020/12/17 03:18:06;;;;;;;14.30;7.60;;;5.10;99.90;;;;;;5032594;28;20942;-70
2020/12/17 03:20:33;;;;;;;11.33;7.37;;;5.20;99.90;;;;;;5032851;28;20462;-70
2020/12/17 03:22:59;;;;;;;13.03;8.50;;;5.20;99.90;;;;;;5032865;28;20524;-70
2020/12/17 03:25:25;;;;;;;14.07;8.70;;;5.20;99.90;;;;;;5032562;28;20490;-69
2020/12/17 03:27:51;;;;;;;13.60;7.90;;;5.20;99.90;;;;;;5032886;28;20427;-70
2020/12/17 03:30:17;;;;;;;12.77;8.17;;;5.20;99.90;;;;;;5032756;28;20442;-70
2020/12/17 03:32:44;;;;;;;12.40;7.80;;;5.20;99.90;;;;;;5032784;28;20443;-70
2020/12/17 03:35:11;;;;;;;13.87;8.73;;;5.20;99.90;;;;;;5033244;28;20449;-70
2020/12/17 03:37:37;;;;;;;13.33;9.17;;;5.20;99.90;;;;;;5036107;28;20442;-70
2020/12/17 03:40:03;;;;;;;15.13;9.67;;;5.30;99.90;;;;;;5036922;28;20461;-70
2020/12/17 03:42:30;;;;;;;14.17;8.70;;;5.30;99.90;;;;;;5035937;28;20489;-70
2020/12/17 03:44:56;;;;;;;12.03;8.87;;;5.40;99.90;;;;;;5035915;28;20945;-70
2020/12/17 03:47:22;;;;;;;13.37;8.60;;;5.50;99.90;;;;;;5036222;28;20468;-70
2020/12/17 03:49:49;;;;;;;13.10;8.90;;;5.70;99.90;;;;;;5036183;28;20452;-70
2020/12/17 03:52:15;;;;;;;15.40;9.13;;;5.80;99.90;;;;;;5036021;28;21000;-70
2020/12/17 03:54:41;;;;;;;16.30;9.53;;;5.80;99.90;;;;;;5035782;28;20934;-70
2020/12/17 03:57:08;;;;;;;16.00;9.77;;;5.80;99.90;;;;;;5036049;28;20439;-70
2020/12/17 03:59:34;;;;;;;17.23;9.57;;;5.70;99.90;;;;;;5035994;28;20463;-70
2020/12/17 04:02:00;;;;;;;14.27;8.60;;;5.80;99.90;;;;;;5035617;28;20459;-70
2020/12/17 04:04:26;;;;;;;14.10;8.40;;;5.80;99.90;;;;;;5036163;28;20443;-70
2020/12/17 04:06:53;;;;;;;14.30;9.23;;;5.80;99.90;;;;;;5035813;28;20482;-70
2020/12/17 04:09:19;;;;;;;13.40;9.27;;;5.70;99.90;;;;;;5035845;28;20450;-71
2020/12/17 04:11:46;;;;;;;13.03;8.57;;;5.70;99.90;;;;;;5035728;28;20463;-70
2020/12/17 04:14:12;;;;;;;14.23;9.27;;;5.70;99.90;;;;;;5035475;28;20844;-70
2020/12/17 04:16:38;;;;;;;13.60;9.03;;;5.70;99.90;;;;;;5035671;28;20561;-70
2020/12/17 04:19:04;;;;;;;12.40;9.07;;;5.70;99.90;;;;;;5035320;28;20996;-71
2020/12/17 04:21:30;;;;;;;12.20;7.87;;;5.60;99.90;;;;;;5035525;28;20466;-70
2020/12/17 04:23:57;;;;;;;11.00;8.07;;;5.60;99.90;;;;;;5035188;28;20999;-70
2020/12/17 04:26:24;;;;;;;11.57;7.20;;;5.60;99.90;;;;;;5035080;28;20493;-70
2020/12/17 04:28:50;;;;;;;11.73;7.27;;;5.50;99.90;;;;;;5035736;28;20453;-70
2020/12/17 04:31:16;;;;;;;10.27;6.80;;;5.40;99.90;;;;;;5035365;28;20463;-70
2020/12/17 04:33:42;;;;;;;8.03;5.80;;;5.40;99.90;;;;;;5035378;28;20450;-70
2020/12/17 04:36:08;;;;;;;10.60;7.20;;;5.40;99.90;;;;;;5035007;28;20451;-70
2020/12/17 04:38:35;;;;;;;13.27;8.87;;;5.40;99.90;;;;;;5035286;28;20451;-70
2020/12/17 04:41:05;;;;;;;11.37;7.20;;;5.30;99.90;;;;;;5035185;28;20516;-70
2020/12/17 04:43:32;;;;;;;8.93;6.87;;;5.30;99.90;;;;;;5036034;28;20458;-70
2020/12/17 04:45:59;;;;;;;10.77;8.00;;;5.30;99.90;;;;;;5034699;28;20486;-70
2020/12/17 04:48:26;;;;;;;11.07;7.70;;;5.30;99.90;;;;;;5034802;28;20949;-70
2020/12/17 04:50:53;;;;;;;14.73;7.20;;;5.30;99.90;;;;;;5034704;28;20956;-70
2020/12/17 04:53:19;;;;;;;12.07;6.97;;;5.30;99.90;;;;;;5034996;28;20447;-70
2020/12/17 04:55:48;;;;;;;13.00;8.07;;;5.30;99.90;;;;;;5034922;28;20413;-70
2020/12/17 04:58:20;;;;;;;8.90;7.40;;;5.20;99.90;;;;;;5034860;28;20973;-70
2020/12/17 05:00:53;;;;;;;10.30;8.07;;;5.20;99.90;;;;;;5034795;28;20466;-70
2020/12/17 05:03:22;;;;;;;13.40;8.30;;;5.20;99.90;;;;;;5034845;28;20431;-70
2020/12/17 05:05:51;;;;;;;8.50;6.90;;;5.20;99.90;;;;;;5034701;28;20475;-70
2020/12/17 05:08:21;;;;;;;10.43;6.60;;;5.20;99.90;;;;;;5034681;28;20458;-70
2020/12/17 05:10:47;;;;;;;11.93;7.40;;;5.10;99.90;;;;;;5034281;28;20466;-70
2020/12/17 05:13:15;;;;;;;9.00;6.90;;;5.10;99.90;;;;;;5034615;28;20790;-70
2020/12/17 05:15:41;;;;;;;10.33;7.20;;;5.00;99.90;;;;;;5034248;28;20526;-70
2020/12/17 05:18:07;;;;;;;8.70;7.23;;;5.00;99.90;;;;;;5034474;28;20512;-70
2020/12/17 05:20:36;;;;;;;10.77;7.90;;;5.00;99.90;;;;;;5034450;28;20874;-70
2020/12/17 05:23:04;;;;;;;11.00;7.10;;;4.90;99.90;;;;;;5034169;28;20501;-70
2020/12/17 05:25:31;;;;;;;9.60;7.07;;;4.80;99.90;;;;;;5033873;28;21009;-70
2020/12/17 05:27:57;;;;;;;9.40;6.53;;;4.90;99.90;;;;;;5034363;28;20434;-70
2020/12/17 05:30:32;;;;;;;10.50;7.47;;;4.90;99.90;;;;;;5034183;28;20942;-70
2020/12/17 05:32:59;;;;;;;9.40;6.40;;;4.90;99.90;;;;;;5033985;28;20910;-70
2020/12/17 05:35:30;;;;;;;8.40;6.97;;;4.90;99.90;;;;;;5034191;28;20508;-70
2020/12/17 05:38:00;;;;;;;9.47;6.70;;;4.90;99.90;;;;;;5033964;28;20806;-70
2020/12/17 05:40:26;;;;;;;10.27;7.23;;;4.90;99.90;;;;;;5034046;28;20482;-70
2020/12/17 05:42:53;;;;;;;9.53;6.60;;;4.90;99.90;;;;;;5033769;28;20961;-70
2020/12/17 05:45:26;;;;;;;10.10;6.30;;;4.80;99.90;;;;;;5033644;28;20950;-70
2020/12/17 05:48:13;;;;;;;9.23;6.10;;;4.90;99.90;;;;;;5033990;28;20447;-70
2020/12/17 05:50:51;;;;;;;10.53;6.93;;;4.80;99.90;;;;;;5033850;28;20462;-70
2020/12/17 05:53:18;;;;;;;8.50;6.73;;;4.80;99.90;;;;;;5033924;28;20447;-70
2020/12/17 05:55:44;;;;;;;7.57;6.70;;;4.80;99.90;;;;;;5034493;28;20873;-70
2020/12/17 05:58:11;;;;;;;8.53;6.17;;;4.80;99.90;;;;;;5032865;28;20791;-70
2020/12/17 06:00:37;;;;;;;9.03;6.17;;;4.70;99.90;;;;;;5033734;28;20818;-71
2020/12/17 06:03:04;;;;;;;8.23;5.63;;;4.70;99.90;;;;;;5033737;28;20811;-70
2020/12/17 06:05:32;;;;;;;6.57;5.47;;;4.60;99.90;;;;;;5033693;28;20486;-70
2020/12/17 06:08:00;;;;;;;6.20;4.63;;;4.60;99.90;;;;;;5033670;28;20480;-70
2020/12/17 06:10:28;;;;;;;5.80;4.63;;;4.50;99.90;;;;;;5033545;28;20516;-70
2020/12/17 06:12:55;;;;;;;7.40;4.63;;;4.50;99.90;;;;;;5033601;28;20442;-70
2020/12/17 06:15:23;;;;;;;4.47;3.90;;;4.50;99.90;;;;;;5033558;28;20449;-70
2020/12/17 06:17:52;;;;;;;10.80;4.90;;;4.50;99.90;;;;;;5033515;28;20454;-70
2020/12/17 06:20:19;;;;;;;8.53;4.53;;;4.50;99.90;;;;;;5033409;28;20413;-71
2020/12/17 06:22:55;;;;;;;5.47;3.93;;;4.50;99.90;;;;;;5033414;28;20496;-71
2020/12/17 06:25:22;;;;;;;5.60;4.50;;;4.40;99.90;;;;;;5032884;28;20484;-70
2020/12/17 06:27:51;;;;;;;5.00;3.90;;;4.40;99.90;;;;;;5033467;28;20433;-71
2020/12/17 06:30:19;;;;;;;5.80;4.43;;;4.40;99.90;;;;;;5033275;28;20504;-71
2020/12/17 06:32:45;;;;;;;3.93;3.53;;;4.40;99.90;;;;;;5033016;28;20449;-71
2020/12/17 06:35:24;;;;;;;3.60;3.30;;;4.40;99.90;;;;;;5033556;28;20450;-70
2020/12/17 06:37:54;;;;;;;6.57;4.50;;;4.40;99.90;;;;;;5033031;28;20430;-70
2020/12/17 06:40:26;;;;;;;6.37;4.23;;;4.40;99.90;;;;;;5033142;28;20446;-69
2020/12/17 06:42:52;;;;;;;5.27;4.10;;;4.40;99.90;;;;;;5033294;28;20481;-69
2020/12/17 06:45:26;;;;;;;3.97;3.57;;;4.40;99.90;;;;;;5033203;28;20455;-70
2020/12/17 06:47:52;;;;;;;4.00;3.60;;;4.40;99.90;;;;;;5033199;28;20473;-69
2020/12/17 06:50:23;;;;;;;6.20;3.70;;;4.40;99.90;;;;;;5033127;28;20450;-70
2020/12/17 06:53:08;;;;;;;3.43;3.13;;;4.40;99.90;;;;;;5033169;28;20457;-70
2020/12/17 06:55:41;;;;;;;4.30;3.30;;;4.30;99.90;;;;;;5033152;28;20806;-70
2020/12/17 06:58:16;;;;;;;3.33;3.03;;;4.40;99.90;;;;;;5032777;28;20911;-70
2020/12/17 07:00:42;;;;;;;4.17;3.77;;;4.40;99.90;;;;;;5033034;28;20519;-70
2020/12/17 07:03:09;;;;;;;4.70;3.43;;;4.50;99.90;;;;;;5032700;28;20447;-70
2020/12/17 07:05:36;;;;;;;4.47;3.40;;;4.50;99.90;;;;;;5032976;28;20508;-70
2020/12/17 07:08:03;;;;;;;3.97;3.23;;;4.40;99.90;;;;;;5031085;28;20478;-70
2020/12/17 07:10:31;;;;;;;3.47;3.17;;;4.50;99.90;;;;;;5034697;28;20435;-70
2020/12/17 07:12:57;;;;;;;3.10;2.77;;;4.50;99.90;;;;;;5035387;28;20433;-70
2020/12/17 07:15:33;;;;;;;3.60;2.83;;;4.40;99.90;;;;;;5036989;28;20496;-70
2020/12/17 07:18:18;;;;;;;4.47;4.07;;;4.40;99.90;;;;;;5036853;28;20434;-70
2020/12/17 07:20:44;;;;;;;4.90;3.70;;;4.40;99.90;;;;;;5035437;28;20474;-70
2020/12/17 07:23:10;;;;;;;4.57;3.30;;;4.40;99.90;;;;;;5036772;28;20427;-69
2020/12/17 07:25:38;;;;;;;3.37;3.07;;;4.40;99.90;;;;;;5036531;28;20494;-69
2020/12/17 07:28:05;;;;;;;4.80;3.80;;;4.40;99.90;;;;;;5036557;28;20431;-68
2020/12/17 07:30:31;;;;;;;5.33;3.70;;;4.40;99.90;;;;;;5036791;28;20466;-66
2020/12/17 07:32:58;;;;;;;6.03;3.60;;;4.40;99.90;;;;;;5036565;28;20471;-67
2020/12/17 07:35:26;;;;;;;3.37;3.07;;;4.30;99.90;;;;;;5036556;28;20430;-66
2020/12/17 07:37:55;;;;;;;4.47;3.20;;;4.30;99.90;;;;;;5037467;28;20512;-66
2020/12/17 07:40:30;;;;;;;4.50;3.00;;;4.30;99.90;;;;;;5036347;28;20450;-66
2020/12/17 07:43:03;;;;;;;5.20;2.93;;;4.30;99.90;;;;;;5036389;28;20409;-65
2020/12/17 07:45:52;;;;;;;3.17;2.80;;;4.30;99.90;;;;;;5035962;28;20431;-66
2020/12/17 07:48:40;;;;;;;4.20;3.13;;;4.40;99.90;;;;;;5036240;28;20427;-67
2020/12/17 07:51:27;;;;;;;4.03;3.30;;;4.40;99.90;;;;;;5036099;28;20466;-66
2020/12/17 07:53:54;;;;;;;2.93;2.60;;;4.40;99.90;;;;;;5036163;28;20442;-66
2020/12/17 07:56:20;;;;;;;3.07;2.67;;;4.60;99.90;;;;;;5036040;28;20442;-66
2020/12/17 07:58:48;;;;;;;3.00;2.67;;;4.70;99.90;;;;;;5036051;28;20449;-66
2020/12/17 08:01:16;;;;;;;4.60;3.10;;;4.80;99.90;;;;;;5035897;28;20473;-65
2020/12/17 08:03:43;;;;;;;2.77;2.30;;;5.00;99.90;;;;;;5035911;28;20449;-66
2020/12/17 08:06:11;;;;;;;3.37;3.07;;;5.00;99.90;;;;;;5035503;28;20478;-66
2020/12/17 08:08:37;;;;;;;2.77;2.53;;;5.10;99.90;;;;;;5035875;28;20449;-65
2020/12/17 08:11:05;;;;;;;2.97;2.67;;;5.20;99.90;;;;;;5035753;28;20506;-66
2020/12/17 08:13:32;;;;;;;2.30;2.20;;;5.30;99.90;;;;;;5035774;28;20443;-66
2020/12/17 08:16:00;;;;;;;5.20;2.63;;;5.30;99.90;;;;;;5035725;28;20442;-67
2020/12/17 08:18:27;;;;;;;3.93;3.53;;;5.40;99.90;;;;;;5035657;28;20497;-65
2020/12/17 08:21:10;;;;;;;3.17;2.87;;;5.50;99.90;;;;;;5034895;28;20481;-66
2020/12/17 08:23:38;;;;;;;2.60;2.40;;;5.60;99.90;;;;;;5035329;28;20844;-66
2020/12/17 08:26:06;;;;;;;2.63;2.40;;;5.60;99.90;;;;;;5035191;28;20556;-66
2020/12/17 08:28:33;;;;;;;2.90;2.70;;;5.70;99.90;;;;;;5035516;28;20438;-66
2020/12/17 08:31:19;;;;;;;2.90;2.60;;;5.70;99.90;;;;;;5035378;28;20467;-65
2020/12/17 08:33:47;;;;;;;2.67;2.30;;;5.80;99.90;;;;;;5035164;28;20898;-65
2020/12/17 08:36:15;;;;;;;3.67;2.57;;;5.90;99.90;;;;;;5035375;28;20438;-66
2020/12/17 08:38:52;;;;;;;4.50;2.70;;;6.00;99.90;;;;;;5035327;28;20450;-66
2020/12/17 08:41:20;;;;;;;4.17;3.00;;;6.10;99.90;;;;;;5035316;28;20462;-66
2020/12/17 08:43:49;;;;;;;3.20;2.43;;;6.10;99.90;;;;;;5034935;28;20942;-66
2020/12/17 08:46:16;;;;;;;4.43;3.13;;;6.10;99.90;;;;;;5035081;28;20482;-65
2020/12/17 08:48:45;;;;;;;4.10;3.17;;;6.10;99.90;;;;;;5035099;28;20454;-66
2020/12/17 08:51:12;;;;;;;4.57;3.23;;;6.10;99.90;;;;;;5035015;28;20473;-66
2020/12/17 08:53:43;;;;;;;3.63;3.33;;;6.10;99.90;;;;;;5034721;28;20496;-64
2020/12/17 08:56:20;;;;;;;2.80;2.60;;;6.10;99.90;;;;;;5034955;28;20450;-65
2020/12/17 08:58:49;;;;;;;3.07;2.57;;;6.20;99.90;;;;;;5035027;28;20529;-69
2020/12/17 09:01:17;;;;;;;3.40;3.00;;;6.20;99.90;;;;;;5034885;28;20478;-67
2020/12/17 09:03:46;;;;;;;3.07;2.80;;;6.20;99.90;;;;;;5034732;28;20450;-68
2020/12/17 09:06:12;;;;;;;4.40;2.60;;;6.30;99.90;;;;;;5034657;28;20488;-69
2020/12/17 09:08:39;;;;;;;7.50;2.90;;;6.40;99.90;;;;;;5034741;28;20454;-69
2020/12/17 09:11:05;;;;;;;3.10;2.63;;;6.40;99.90;;;;;;5034572;28;20470;-69
2020/12/17 09:13:32;;;;;;;3.43;2.80;;;6.50;99.90;;;;;;5034604;28;20496;-69
2020/12/17 09:15:59;;;;;;;5.43;3.30;;;6.50;99.90;;;;;;5034544;28;20443;-69
2020/12/17 09:18:27;;;;;;;3.53;3.10;;;6.60;99.90;;;;;;5034487;28;20501;-69
2020/12/17 09:21:08;;;;;;;6.27;3.10;;;6.70;99.90;;;;;;5034587;28;20552;-72
2020/12/17 09:23:35;;;;;;;5.80;2.70;;;6.90;99.90;;;;;;5034179;28;20439;-72
2020/12/17 09:26:11;;;;;;;4.90;3.00;;;6.90;99.90;;;;;;5034333;28;20494;-72
2020/12/17 09:28:38;;;;;;;7.10;3.30;;;7.10;99.90;;;;;;5034300;28;20500;-68
2020/12/17 09:31:18;;;;;;;3.87;2.87;;;7.90;99.90;;;;;;5034206;28;20829;-69
2020/12/17 09:33:45;;;;;;;3.57;2.70;;;8.90;99.90;;;;;;5033252;28;20813;-70
2020/12/17 09:36:15;;;;;;;3.13;2.73;;;10.70;99.90;;;;;;5034190;28;20842;-69
2020/12/17 09:38:42;;;;;;;2.63;2.40;;;13.00;99.90;;;;;;5034071;28;20450;-68
2020/12/17 09:41:08;;;;;;;2.70;2.50;;;14.90;99.90;;;;;;5033948;28;20462;-71
2020/12/17 09:43:34;;;;;;;3.97;3.13;;;16.50;94.50;;;;;;5033753;28;20447;-71
2020/12/17 09:46:00;;;;;;;3.63;2.93;;;17.80;83.70;;;;;;5033631;28;20470;-71
2020/12/17 09:48:30;;;;;;;3.47;3.13;;;18.50;75.00;;;;;;5033548;28;20937;-69
2020/12/17 09:51:00;;;;;;;3.10;2.77;;;18.00;71.80;;;;;;5034276;28;20486;-70
2020/12/17 09:53:28;;;;;;;3.23;2.30;;;17.20;72.70;;;;;;5033806;28;20435;-69
2020/12/17 09:55:54;;;;;;;2.47;2.27;;;16.10;75.30;;;;;;5033724;28;20430;-70
2020/12/17 09:58:21;;;;;;;3.70;2.63;;;15.30;79.80;;;;;;5033740;28;20967;-72
2020/12/17 10:00:47;;;;;;;3.43;3.13;;;15.50;81.00;;;;;;5033394;28;20475;-69
2020/12/17 10:03:13;;;;;;;2.90;2.70;;;15.40;79.70;;;;;;5033984;28;20422;-69
2020/12/17 10:05:40;;;;;;;3.30;2.60;;;14.60;81.30;;;;;;5033665;28;20442;-72
2020/12/17 10:08:07;;;;;;;3.33;3.10;;;13.80;85.30;;;;;;5033768;28;20441;-72
2020/12/17 10:10:34;;;;;;;3.07;2.77;;;13.50;87.80;;;;;;5033964;28;20840;-72
2020/12/17 10:13:01;;;;;;;3.70;3.30;;;12.90;89.60;;;;;;5033717;28;20434;-75
2020/12/17 10:15:28;;;;;;;4.47;3.40;;;12.80;91.30;;;;;;5033749;28;20438;-68
2020/12/17 10:17:55;;;;;;;3.40;3.10;;;12.80;91.50;;;;;;5033724;28;20454;-73
2020/12/17 10:20:22;;;;;;;4.77;3.80;;;12.70;91.90;;;;;;5033609;28;20435;-73
2020/12/17 10:22:50;;;;;;;4.10;3.10;;;12.50;93.10;;;;;;5033445;28;20427;-72
2020/12/17 10:25:17;;;;;;;3.13;2.83;;;12.60;92.70;;;;;;5033277;28;20462;-71
2020/12/17 10:27:44;;;;;;;4.87;3.10;;;13.60;93.00;;;;;;5033113;28;20938;-71
2020/12/17 10:30:11;;;;;;;3.03;2.70;;;15.10;89.90;;;;;;5033364;28;20434;-70
2020/12/17 10:32:38;;;;;;;3.77;2.90;;;16.80;83.70;;;;;;5033532;28;20431;-71
2020/12/17 10:35:06;;;;;;;3.73;3.20;;;18.00;76.60;;;;;;5033302;28;20577;-71
2020/12/17 10:37:32;;;;;;;2.93;2.73;;;17.80;74.50;;;;;;5032916;28;20907;-71
2020/12/17 10:39:58;;;;;;;2.43;2.23;;;16.80;76.10;;;;;;5033244;28;20551;-73
2020/12/17 10:42:24;;;;;;;3.07;2.80;;;16.50;76.90;;;;;;5033090;28;21092;-72
2020/12/17 10:44:52;;;;;;;3.10;2.80;;;17.00;76.80;;;;;;5034949;28;20431;-72
2020/12/17 10:47:19;;;;;;;4.97;2.97;;;18.10;74.00;;;;;;5037068;28;20973;-73
2020/12/17 10:49:45;;;;;;;2.60;2.40;;;19.00;69.80;;;;;;5037832;28;20451;-72
2020/12/17 10:52:11;;;;;;;2.73;2.53;;;19.90;68.00;;;;;;5037551;28;20516;-73
2020/12/17 10:54:38;;;;;;;2.90;2.70;;;20.60;64.50;;;;;;5037670;28;20435;-73
2020/12/17 10:57:04;;;;;;;3.33;2.80;;;21.20;60.40;;;;;;5037568;28;20472;-73
2020/12/17 10:59:30;;;;;;;3.50;3.20;;;20.40;60.50;;;;;;5036967;28;20521;-72
2020/12/17 11:01:58;;;;;;;3.30;2.97;;;18.70;63.60;;;;;;5037117;28;20466;-71
2020/12/17 11:04:24;;;;;;;3.90;3.50;;;17.00;68.30;;;;;;5036808;28;20427;-71
2020/12/17 11:06:50;;;;;;;3.13;2.83;;;15.50;73.70;;;;;;5037622;28;20478;-72
2020/12/17 11:09:17;;;;;;;4.33;2.80;;;14.30;78.30;;;;;;5037085;28;20434;-69
2020/12/17 11:11:44;;;;;;;3.63;3.03;;;13.40;83.10;;;;;;5037384;28;20483;-65
2020/12/17 11:14:10;;;;;;;3.70;3.40;;;12.70;87.10;;;;;;5036986;28;20457;-69
2020/12/17 11:16:36;;;;;;;3.60;3.30;;;12.20;90.60;;;;;;5036627;28;20910;-67
2020/12/17 11:19:03;;;;;;;2.87;2.60;;;11.90;92.20;;;;;;5036599;28;20431;-70
2020/12/17 11:21:29;;;;;;;4.03;3.13;;;11.60;93.80;;;;;;5036776;28;20524;-69
2020/12/17 11:23:56;;;;;;;5.20;3.13;;;11.20;95.30;;;;;;5036494;28;20438;-69
2020/12/17 11:26:22;;;;;;;3.67;3.33;;;11.00;96.90;;;;;;5036439;28;20497;-69
2020/12/17 11:28:48;;;;;;;3.77;3.47;;;10.70;99.00;;;;;;5036680;28;20808;-69
2020/12/17 11:31:14;;;;;;;3.33;3.03;;;10.60;99.90;;;;;;5036571;28;20478;-69
2020/12/17 11:33:40;;;;;;;3.77;3.47;;;10.50;99.90;;;;;;5036649;28;20433;-70
2020/12/17 11:36:07;;;;;;;2.87;2.57;;;10.50;99.90;;;;;;5036561;28;20434;-69
2020/12/17 11:38:34;;;;;;;4.27;3.30;;;10.50;99.90;;;;;;5036546;28;20453;-69
2020/12/17 11:41:00;;;;;;;3.90;2.77;;;10.30;99.90;;;;;;5036112;28;20970;-70
2020/12/17 11:43:26;;;;;;;3.80;3.10;;;10.30;99.90;;;;;;5036447;28;20453;-69
2020/12/17 11:45:52;;;;;;;3.53;3.20;;;10.30;99.90;;;;;;5036319;28;20461;-69
2020/12/17 11:48:18;;;;;;;3.70;2.90;;;10.30;99.90;;;;;;5036322;28;20465;-70
2020/12/17 11:50:45;;;;;;;4.30;2.90;;;10.30;99.90;;;;;;5036267;28;20466;-69
2020/12/17 11:53:13;;;;;;;2.90;2.53;;;10.20;99.90;;;;;;5035923;28;20980;-69
2020/12/17 11:55:39;;;;;;;4.80;2.90;;;10.30;99.90;;;;;;5035283;28;20865;-69
2020/12/17 11:58:06;;;;;;;4.70;3.53;;;10.30;99.90;;;;;;5035564;28;20431;-69
2020/12/17 12:00:32;;;;;;;4.10;3.00;;;10.40;99.90;;;;;;5036067;28;20517;-69
2020/12/17 12:02:58;;;;;;;3.83;3.07;;;10.40;99.90;;;;;;5035752;28;20972;-69
2020/12/17 12:05:24;;;;;;;5.30;4.17;;;10.50;99.90;;;;;;5036049;28;20431;-69
2020/12/17 12:07:51;;;;;;;3.70;3.23;;;10.50;99.90;;;;;;5035866;28;20481;-70
2020/12/17 12:10:18;;;;;;;3.73;3.20;;;10.50;99.90;;;;;;5036077;28;20482;-68
2020/12/17 12:12:44;;;;;;;3.87;3.10;;;10.40;99.90;;;;;;5035829;28;20508;-69
2020/12/17 12:15:11;;;;;;;4.67;2.77;;;10.40;99.90;;;;;;5035773;28;20506;-68
2020/12/17 12:17:37;;;;;;;3.50;3.20;;;10.40;99.90;;;;;;5035618;28;20802;-69
2020/12/17 12:20:04;;;;;;;3.40;3.10;;;10.40;99.90;;;;;;5035674;28;20470;-70
2020/12/17 12:22:30;;;;;;;6.93;3.20;;;10.30;99.90;;;;;;5035603;28;20477;-69
2020/12/17 12:24:56;;;;;;;3.30;3.00;;;10.30;99.90;;;;;;5035462;28;20546;-68
2020/12/17 12:27:23;;;;;;;3.87;3.57;;;10.30;99.90;;;;;;5035320;28;20497;-68
2020/12/17 12:29:50;;;;;;;9.20;2.97;;;10.40;99.90;;;;;;5035538;28;20435;-68
2020/12/17 12:32:16;;;;;;;3.83;3.40;;;10.50;99.90;;;;;;5035071;28;20455;-68
2020/12/17 12:34:42;;;;;;;2.67;2.47;;;10.50;99.90;;;;;;5035606;28;20450;-69
2020/12/17 12:37:09;;;;;;;5.40;3.70;;;10.50;99.90;;;;;;5035036;28;20895;-70
2020/12/17 12:39:35;;;;;;;3.40;3.10;;;10.50;99.90;;;;;;5035515;28;20448;-69
2020/12/17 12:42:01;;;;;;;5.20;3.30;;;10.50;99.90;;;;;;5035246;28;20584;-69
2020/12/17 12:44:28;;;;;;;3.80;3.40;;;10.40;99.90;;;;;;5035174;28;20477;-69
2020/12/17 12:46:55;;;;;;;7.03;3.10;;;10.40;99.90;;;;;;5035086;28;20466;-69
2020/12/17 12:49:21;;;;;;;3.53;3.23;;;10.30;99.90;;;;;;5035164;28;20435;-69
2020/12/17 12:51:48;;;;;;;3.17;2.87;;;10.20;99.90;;;;;;5034714;28;20516;-69
2020/12/17 12:54:14;;;;;;;3.90;3.50;;;10.10;99.90;;;;;;5035077;28;20470;-69
2020/12/17 12:56:40;;;;;;;3.70;3.30;;;10.20;99.90;;;;;;5035032;28;20431;-70